Time;durP1;ratioP1;P1;durP2;ratioP2;P2;SDS_P1;SDS_P2;PMS_P1;PMS_P2;Temp;Humidity;BMP_temperature;BMP_pressure;BME280_temperature;BME280_humidity;BME280_pressure;Samples;Min_cycle;Max_cycle;Signal;HPM_P1;HPM_P2
2022/10/06 00:00:35;;;;;;;3.13;2.00;;;;;;;-141.23;100.00;62281.09;5055203;28;20048;-68
2022/10/06 00:03:01;;;;;;;5.18;1.90;;;;;;;-141.23;100.00;62281.09;5054709;28;20506;-68
2022/10/06 00:05:27;;;;;;;2.67;1.90;;;;;;;-141.23;100.00;62281.09;5071709;28;20051;-68
2022/10/06 00:07:54;;;;;;;3.78;2.15;;;;;;;-141.23;100.00;62281.09;5054616;28;20052;-68
2022/10/06 00:10:20;;;;;;;3.42;3.13;;;;;;;-141.23;100.00;62281.09;5071333;28;20475;-68
2022/10/06 00:12:49;;;;;;;2.35;1.77;;;;;;;-141.23;100.00;62281.09;5037906;28;20041;-68
2022/10/06 00:15:21;;;;;;;3.05;1.83;;;;;;;-141.23;100.00;62281.09;5071277;28;20044;-68
2022/10/06 00:17:46;;;;;;;3.25;2.20;;;;;;;-141.23;100.00;62281.09;5071738;28;20037;-68
2022/10/06 00:20:13;;;;;;;3.42;1.90;;;;;;;-141.23;100.00;62281.09;5054530;28;20501;-69
2022/10/06 00:22:41;;;;;;;2.88;2.10;;;;;;;-141.23;100.00;62281.09;5071204;28;20048;-69
2022/10/06 00:25:09;;;;;;;2.80;1.88;;;;;;;-141.23;100.00;62281.09;5072033;28;20081;-69
2022/10/06 00:27:37;;;;;;;5.97;3.00;;;;;;;-141.23;100.00;62281.09;5071086;28;20491;-68
2022/10/06 00:30:05;;;;;;;2.53;2.10;;;;;;;-141.23;100.00;62281.09;5070862;28;20139;-68
2022/10/06 00:32:31;;;;;;;2.63;2.05;;;;;;;-141.23;100.00;62281.09;5070822;28;20044;-68
2022/10/06 00:34:59;;;;;;;4.15;2.00;;;;;;;-141.23;100.00;62281.09;5054296;28;20098;-68
2022/10/06 00:37:27;;;;;;;3.55;2.20;;;;;;;-141.23;100.00;62281.09;5070740;28;20044;-68
2022/10/06 00:39:53;;;;;;;2.42;2.00;;;;;;;-141.23;100.00;62281.09;5054271;28;20440;-68
2022/10/06 00:42:22;;;;;;;3.85;1.80;;;;;;;-141.23;100.00;62281.09;5053889;28;20117;-69
2022/10/06 00:44:49;;;;;;;1.83;1.60;;;;;;;-141.23;100.00;62281.09;5070586;28;20046;-68
2022/10/06 00:47:15;;;;;;;3.08;2.00;;;;;;;-141.23;100.00;62281.09;5070595;28;20499;-68
2022/10/06 00:49:43;;;;;;;1.88;1.70;;;;;;;-141.23;100.00;62281.09;5054177;28;20055;-68
2022/10/06 00:52:13;;;;;;;3.10;1.73;;;;;;;-141.23;100.00;62281.09;5053864;28;20050;-69
2022/10/06 00:54:39;;;;;;;2.10;1.90;;;;;;;-141.23;100.00;62281.09;5070902;28;20117;-69
2022/10/06 00:57:05;;;;;;;3.80;1.90;;;;;;;-141.23;100.00;62281.09;5054546;28;20487;-68
2022/10/06 00:59:32;;;;;;;2.30;2.03;;;;;;;-141.23;100.00;62281.09;5070891;28;20375;-68
2022/10/06 01:02:04;;;;;;;4.32;2.00;;;;;;;-141.23;100.00;62281.09;5037761;28;20033;-68
2022/10/06 01:04:32;;;;;;;2.78;1.55;;;;;;;-141.23;100.00;62281.09;5055006;28;20093;-68
2022/10/06 01:07:00;;;;;;;3.13;1.77;;;;;;;-141.23;100.00;62281.09;5071168;28;20059;-68
2022/10/06 01:09:26;;;;;;;2.58;2.00;;;;;;;-141.23;100.00;62281.09;5055149;28;20052;-68
2022/10/06 01:11:55;;;;;;;2.20;2.00;;;;;;;-141.23;100.00;62281.09;5054917;28;20121;-68
2022/10/06 01:14:22;;;;;;;2.38;1.92;;;;;;;-141.23;100.00;62281.09;5038149;28;20094;-68
2022/10/06 01:17:00;;;;;;;5.55;2.40;;;;;;;-141.23;100.00;62281.09;5072315;28;20040;-68
2022/10/06 01:19:29;;;;;;;3.90;2.00;;;;;;;-141.23;100.00;62281.09;5054227;28;20101;-68
2022/10/06 01:21:56;;;;;;;4.47;2.40;;;;;;;-141.23;100.00;62281.09;5054659;28;20051;-69
2022/10/06 01:24:22;;;;;;;4.15;2.22;;;;;;;-141.23;100.00;62281.09;5074370;28;20127;-69
2022/10/06 01:26:49;;;;;;;6.43;2.33;;;;;;;-141.23;100.00;62281.09;5074075;28;20466;-68
2022/10/06 01:29:15;;;;;;;4.63;2.40;;;;;;;-141.23;100.00;62281.09;5073870;28;20462;-68
2022/10/06 01:31:41;;;;;;;3.80;2.63;;;;;;;-141.23;100.00;62281.09;5074191;28;20119;-69
2022/10/06 01:34:08;;;;;;;3.65;2.70;;;;;;;-141.23;100.00;62281.09;5040831;28;20147;-69
2022/10/06 01:36:34;;;;;;;2.50;2.30;;;;;;;-141.23;100.00;62281.09;5057543;28;20102;-69
2022/10/06 01:39:00;;;;;;;3.33;2.60;;;;;;;-141.23;100.00;62281.09;5057454;28;20094;-68
2022/10/06 01:41:26;;;;;;;4.50;2.30;;;;;;;-141.23;100.00;62281.09;5091721;28;20040;-68
2022/10/06 01:43:53;;;;;;;3.97;2.50;;;;;;;-141.23;100.00;62281.09;5074340;28;20139;-68
2022/10/06 01:46:20;;;;;;;4.10;2.53;;;;;;;-141.23;100.00;62281.09;5075700;28;20106;-69
2022/10/06 01:48:45;;;;;;;2.80;2.20;;;;;;;-141.23;100.00;62281.09;5059364;28;20484;-68
2022/10/06 01:51:17;;;;;;;2.40;2.20;;;;;;;-141.23;100.00;62281.09;5076398;28;20398;-69
2022/10/06 01:53:43;;;;;;;5.43;3.20;;;;;;;-141.23;100.00;62281.09;5093212;28;20189;-68
2022/10/06 01:56:09;;;;;;;2.53;2.28;;;;;;;-141.23;100.00;62281.09;5074968;28;20127;-68
2022/10/06 01:58:34;;;;;;;2.75;2.20;;;;;;;-141.23;100.00;62281.09;5041099;28;20124;-68
2022/10/06 02:01:08;;;;;;;3.35;2.30;;;;;;;-141.23;100.00;62281.09;5074164;28;20044;-67
2022/10/06 02:03:36;;;;;;;4.28;2.47;;;;;;;-141.23;100.00;62281.09;5057289;28;20047;-67
2022/10/06 02:06:02;;;;;;;5.05;2.42;;;;;;;-141.23;100.00;62281.09;5057360;28;20044;-67
2022/10/06 02:08:28;;;;;;;5.93;2.33;;;;;;;-141.23;100.00;62281.09;5073954;28;20193;-67
2022/10/06 02:10:56;;;;;;;2.45;2.25;;;;;;;-141.23;100.00;62281.09;5057954;28;20048;-68
2022/10/06 02:13:26;;;;;;;3.60;2.40;;;;;;;-141.23;100.00;62281.09;5058171;28;20040;-68
2022/10/06 02:15:56;;;;;;;4.15;2.40;;;;;;;-141.23;100.00;62281.09;5074587;28;20055;-68
2022/10/06 02:18:22;;;;;;;2.72;2.40;;;;;;;-141.23;100.00;62281.09;5075713;28;20043;-68
2022/10/06 02:20:48;;;;;;;4.10;2.33;;;;;;;-141.23;100.00;62281.09;5076444;28;20127;-68
2022/10/06 02:23:14;;;;;;;3.30;2.35;;;;;;;-141.23;100.00;62281.09;5075821;28;20137;-68
2022/10/06 02:25:40;;;;;;;2.20;2.00;;;;;;;-141.23;100.00;62281.09;5058735;28;20072;-68
2022/10/06 02:28:05;;;;;;;5.70;2.20;;;;;;;-141.23;100.00;62281.09;5058535;28;20493;-68
2022/10/06 02:30:33;;;;;;;3.40;2.30;;;;;;;-141.23;100.00;62281.09;5074229;28;20036;-68
2022/10/06 02:32:59;;;;;;;11.43;2.70;;;;;;;-141.23;100.00;62281.09;5073896;28;20048;-67
2022/10/06 02:35:25;;;;;;;3.35;2.10;;;;;;;-141.23;100.00;62281.09;5074340;28;20056;-67
2022/10/06 02:37:51;;;;;;;5.57;2.42;;;;;;;-141.23;100.00;62281.09;5057282;28;20046;-67
2022/10/06 02:40:18;;;;;;;2.75;2.50;;;;;;;-141.23;100.00;62281.09;5073947;28;20040;-67
2022/10/06 02:42:44;;;;;;;4.05;2.70;;;;;;;-141.23;100.00;62281.09;5059771;28;20557;-67
2022/10/06 02:45:11;;;;;;;3.53;2.80;;;;;;;-141.23;100.00;62281.09;5093968;28;20054;-67
2022/10/06 02:47:38;;;;;;;6.10;2.60;;;;;;;-141.23;100.00;62281.09;5060100;28;20040;-68
2022/10/06 02:50:05;;;;;;;4.63;2.80;;;;;;;-141.23;100.00;62281.09;5076875;28;20040;-68
2022/10/06 02:52:33;;;;;;;8.98;2.63;;;;;;;-141.23;100.00;62281.09;5076782;28;20047;-68
2022/10/06 02:54:59;;;;;;;6.47;3.17;;;;;;;-141.23;100.00;62281.09;5077240;28;20051;-68
2022/10/06 02:57:26;;;;;;;2.92;2.65;;;;;;;-141.23;100.00;62281.09;5060195;28;20068;-68
2022/10/06 02:59:52;;;;;;;7.18;3.00;;;;;;;-141.23;100.00;62281.09;5093660;28;20036;-68
2022/10/06 03:02:18;;;;;;;6.53;2.90;;;;;;;-141.23;100.00;62281.09;5076700;28;20047;-68
2022/10/06 03:04:44;;;;;;;4.18;3.40;;;;;;;-141.23;100.00;62281.09;5077278;28;20178;-68
2022/10/06 03:07:10;;;;;;;3.92;3.13;;;;;;;-141.23;100.00;62281.09;5077563;28;20047;-67
2022/10/06 03:09:36;;;;;;;4.32;3.13;;;;;;;-141.23;100.00;62281.09;5044552;28;20043;-67
2022/10/06 03:12:02;;;;;;;5.47;3.05;;;;;;;-141.23;100.00;62281.09;5095367;28;20048;-68
2022/10/06 03:14:34;;;;;;;3.50;3.05;;;;;;;-141.23;100.00;62281.09;5077003;28;20054;-68
2022/10/06 03:17:02;;;;;;;6.15;3.30;;;;;;;-141.23;100.00;62281.09;5093298;28;20044;-68
2022/10/06 03:19:29;;;;;;;4.50;3.03;;;;;;;-141.23;100.00;62281.09;5059510;28;20058;-67
2022/10/06 03:21:54;;;;;;;5.25;3.15;;;;;;;-141.23;100.00;62281.09;5076240;28;20234;-70
2022/10/06 03:24:25;;;;;;;5.20;3.28;;;;;;;-141.23;100.00;62281.09;5043598;28;20429;-69
2022/10/06 03:26:55;;;;;;;5.10;3.17;;;;;;;-141.23;100.00;62281.09;5059463;28;20070;-67
2022/10/06 03:29:20;;;;;;;5.20;3.58;;;;;;;-141.23;100.00;62281.09;5043275;28;20466;-67
2022/10/06 03:31:51;;;;;;;6.28;3.60;;;;;;;-141.23;100.00;62281.09;5076128;28;20101;-67
2022/10/06 03:34:17;;;;;;;4.93;3.05;;;;;;;-141.23;100.00;62281.09;5077209;28;20047;-67
2022/10/06 03:36:43;;;;;;;4.30;3.17;;;;;;;-141.23;100.00;62281.09;5076373;28;20200;-66
2022/10/06 03:39:09;;;;;;;4.80;3.63;;;;;;;-141.23;100.00;62281.09;5059152;28;20040;-66
2022/10/06 03:41:37;;;;;;;5.07;3.45;;;;;;;-141.23;100.00;62281.09;5059523;28;20048;-67
2022/10/06 03:44:05;;;;;;;5.47;3.45;;;;;;;-141.23;100.00;62281.09;5076490;28;20050;-67
2022/10/06 03:46:34;;;;;;;4.85;3.83;;;;;;;-141.23;100.00;62281.09;5059745;28;20375;-66
2022/10/06 03:49:02;;;;;;;7.43;3.70;;;;;;;-141.23;100.00;62281.09;5092923;28;20039;-67
2022/10/06 03:51:39;;;;;;;5.63;3.10;;;;;;;-141.23;100.00;62281.09;5076540;28;20466;-68
2022/10/06 03:54:11;;;;;;;6.45;3.83;;;;;;;-141.23;100.00;62281.09;5059831;28;20161;-68
2022/10/06 03:56:40;;;;;;;5.85;3.60;;;;;;;-141.23;100.00;62281.09;5075860;28;20362;-68
2022/10/06 03:59:10;;;;;;;7.80;3.72;;;;;;;-141.23;100.00;62281.09;5059445;28;20048;-67
2022/10/06 04:01:41;;;;;;;7.72;4.32;;;;;;;-141.23;100.00;62281.09;5076065;28;20123;-68
2022/10/06 04:04:08;;;;;;;5.50;3.47;;;;;;;-141.23;100.00;62281.09;5075406;28;20093;-67
2022/10/06 04:06:37;;;;;;;7.30;3.58;;;;;;;-141.23;100.00;62281.09;5075515;28;20043;-67
2022/10/06 04:09:06;;;;;;;6.55;3.58;;;;;;;-141.23;100.00;62281.09;5075417;28;20046;-68
2022/10/06 04:11:36;;;;;;;17.83;6.18;;;;;;;-141.23;100.00;62281.09;5058391;28;20504;-69
2022/10/06 04:14:07;;;;;;;7.10;3.95;;;;;;;-141.23;100.00;62281.09;5092399;28;20100;-69
2022/10/06 04:16:45;;;;;;;6.55;3.85;;;;;;;-141.23;100.00;62281.09;5075722;28;20182;-68
2022/10/06 04:19:14;;;;;;;9.50;3.85;;;;;;;-141.23;100.00;62281.09;5058833;28;20059;-68
2022/10/06 04:21:45;;;;;;;6.03;4.22;;;;;;;-141.23;100.00;62281.09;5075074;28;20470;-70
2022/10/06 04:24:17;;;;;;;6.72;4.30;;;;;;;-141.23;100.00;62281.09;5041865;28;20193;-72
2022/10/06 04:26:45;;;;;;;5.45;3.90;;;;;;;-141.23;100.00;62281.09;5041695;28;20575;-69
2022/10/06 04:29:12;;;;;;;6.00;4.10;;;;;;;-141.23;100.00;62281.09;5058790;28;20051;-69
2022/10/06 04:31:39;;;;;;;5.32;4.07;;;;;;;-141.23;100.00;62281.09;5058081;28;20040;-68
2022/10/06 04:34:09;;;;;;;5.10;4.03;;;;;;;-141.23;100.00;62281.09;5058970;28;20055;-70
2022/10/06 04:36:38;;;;;;;7.78;4.55;;;;;;;-141.23;100.00;62281.09;5075604;28;20073;-70
2022/10/06 04:39:06;;;;;;;6.38;4.55;;;;;;;-141.23;100.00;62281.09;5059774;28;20205;-74
2022/10/06 04:41:38;;;;;;;6.82;5.05;;;;;;;-141.23;100.00;62281.09;5044040;28;20051;-74
2022/10/06 04:44:05;;;;;;;7.25;4.63;;;;;;;-141.23;100.00;62281.09;5076587;28;20044;-76
2022/10/06 04:46:32;;;;;;;7.35;4.35;;;;;;;-141.23;100.00;62281.09;5076979;28;20063;-75
2022/10/06 04:48:58;;;;;;;6.97;4.55;;;;;;;-141.23;100.00;62281.09;5059075;28;20046;-74
2022/10/06 04:51:27;;;;;;;8.40;4.40;;;;;;;-141.23;100.00;62281.09;5075063;28;20048;-75
2022/10/06 04:53:54;;;;;;;8.48;4.28;;;;;;;-141.23;100.00;62281.09;5058683;28;20036;-73
2022/10/06 04:56:23;;;;;;;7.78;4.05;;;;;;;-141.23;100.00;62281.09;5076472;28;20040;-71
2022/10/06 04:58:52;;;;;;;11.93;4.45;;;;;;;-141.23;100.00;62281.09;5055870;28;20059;-70
2022/10/06 05:01:28;;;;;;;7.63;4.50;;;;;;;-141.23;100.00;62281.09;5076480;28;20728;-70
2022/10/06 05:03:55;;;;;;;4.43;3.88;;;;;;;-141.23;100.00;62281.09;5043244;28;20165;-70
2022/10/06 05:06:27;;;;;;;8.35;4.72;;;;;;;-141.23;100.00;62281.09;5043571;28;20134;-70
2022/10/06 05:08:56;;;;;;;6.35;4.18;;;;;;;-141.23;100.00;62281.09;5077935;28;20525;-70
2022/10/06 05:11:23;;;;;;;12.73;4.70;;;;;;;-141.23;100.00;62281.09;5060253;28;20076;-70
2022/10/06 05:13:50;;;;;;;6.43;4.70;;;;;;;-141.23;100.00;62281.09;5043152;28;20058;-71
2022/10/06 05:16:16;;;;;;;9.52;6.03;;;;;;;-141.23;100.00;62281.09;5076260;28;20051;-71
2022/10/06 05:18:44;;;;;;;6.53;4.45;;;;;;;-141.23;100.00;62281.09;5043370;28;20035;-70
2022/10/06 05:21:16;;;;;;;6.35;4.35;;;;;;;-141.23;100.00;62281.09;5067136;28;20043;-71
2022/10/06 05:23:43;;;;;;;5.88;4.53;;;;;;;-141.23;100.00;62281.09;5039850;28;20051;-70
2022/10/06 05:26:11;;;;;;;7.90;4.57;;;;;;;-141.23;100.00;62281.09;5057691;28;20047;-70
2022/10/06 05:28:37;;;;;;;5.70;4.47;;;;;;;-141.23;100.00;62281.09;5058607;28;20035;-71
2022/10/06 05:31:10;;;;;;;11.02;5.00;;;;;;;-141.23;100.00;62281.09;5056050;28;20044;-71
2022/10/06 05:33:37;;;;;;;11.25;4.80;;;;;;;-141.23;100.00;62281.09;5041964;28;20050;-70
2022/10/06 05:36:12;;;;;;;7.05;4.40;;;;;;;-141.23;100.00;62281.09;5042793;28;20100;-71
2022/10/06 05:38:38;;;;;;;7.85;4.88;;;;;;;-141.23;100.00;62281.09;5060140;28;20450;-71
2022/10/06 05:41:11;;;;;;;7.18;4.45;;;;;;;-141.23;100.00;62281.09;5043288;28;20485;-70
2022/10/06 05:43:38;;;;;;;6.07;4.32;;;;;;;-141.23;100.00;62281.09;5078105;28;20050;-70
2022/10/06 05:46:07;;;;;;;7.60;4.88;;;;;;;-141.23;100.00;62281.09;5078143;28;20051;-70
2022/10/06 05:48:33;;;;;;;7.60;5.03;;;;;;;-141.23;100.00;62281.09;5077072;28;20135;-69
2022/10/06 05:51:06;;;;;;;7.47;4.65;;;;;;;-141.23;100.00;62281.09;5043779;28;20444;-71
2022/10/06 05:53:35;;;;;;;7.68;4.75;;;;;;;-141.23;100.00;62281.09;5044139;28;20078;-70
2022/10/06 05:56:06;;;;;;;7.90;5.03;;;;;;;-141.23;100.00;62281.09;5039458;28;20150;-70
2022/10/06 05:58:34;;;;;;;7.75;4.70;;;;;;;-141.23;100.00;62281.09;5039519;28;20044;-69
2022/10/06 06:01:07;;;;;;;7.10;4.78;;;;;;;-141.23;100.00;62281.09;5056701;28;20036;-71
2022/10/06 06:03:33;;;;;;;6.97;4.65;;;;;;;-141.23;100.00;62281.09;5040274;28;20036;-72
2022/10/06 06:05:59;;;;;;;8.68;5.90;;;;;;;-141.23;100.00;62281.09;5055472;28;21668;-70
2022/10/06 06:08:25;;;;;;;8.05;4.97;;;;;;;-141.23;100.00;62281.09;5039749;28;20140;-71
2022/10/06 06:10:51;;;;;;;7.57;4.78;;;;;;;-141.23;100.00;62281.09;5039426;28;20134;-71
2022/10/06 06:13:21;;;;;;;9.05;4.85;;;;;;;-141.23;100.00;62281.09;5038551;28;20036;-71
2022/10/06 06:16:02;;;;;;;9.07;4.53;;;;;;;-141.23;100.00;62281.09;5043268;28;20069;-70
2022/10/06 06:18:31;;;;;;;9.00;5.15;;;;;;;-141.23;100.00;62281.09;5060574;28;20489;-70
2022/10/06 06:20:59;;;;;;;7.45;5.10;;;;;;;-141.23;100.00;62281.09;5046954;28;20094;-70
2022/10/06 06:23:33;;;;;;;10.05;4.63;;;;;;;-141.23;100.00;62281.09;5060163;28;20056;-70
2022/10/06 06:26:00;;;;;;;7.20;4.28;;;;;;;-141.23;100.00;62281.09;5059790;28;20100;-70
2022/10/06 06:28:28;;;;;;;7.13;4.15;;;;;;;-141.23;100.00;62281.09;5060208;28;20048;-68
2022/10/06 06:31:02;;;;;;;7.38;4.28;;;;;;;-141.23;100.00;62281.09;5059684;28;20052;-70
2022/10/06 06:33:30;;;;;;;6.93;3.90;;;;;;;-141.23;100.00;62281.09;5043787;28;20113;-70
2022/10/06 06:35:56;;;;;;;5.57;3.80;;;;;;;-141.23;100.00;62281.09;5061302;28;20393;-72
2022/10/06 06:38:23;;;;;;;4.35;3.38;;;;;;;-141.23;100.00;62281.09;5054514;28;20120;-74
2022/10/06 06:40:49;;;;;;;6.20;4.65;;;;;;;-141.23;100.00;62281.09;5062579;28;20135;-70
2022/10/06 06:43:16;;;;;;;7.72;3.25;;;;;;;-141.23;100.00;62281.09;5061447;28;20032;-73
2022/10/06 06:46:17;;;;;;;7.15;3.58;;;;;;;-141.23;100.00;62281.09;5061192;28;20044;-70
2022/10/06 06:49:04;;;;;;;10.13;4.80;;;;;;;-141.23;100.00;62281.09;5046134;28;20480;-70
2022/10/06 06:51:36;;;;;;;7.90;4.18;;;;;;;-141.23;100.00;62281.09;5061266;28;20036;-72
2022/10/06 06:54:03;;;;;;;5.05;3.90;;;;;;;-141.23;100.00;62281.09;5045830;28;20062;-73
2022/10/06 06:56:35;;;;;;;6.45;4.45;;;;;;;-141.23;100.00;62281.09;5059508;28;20031;-71
2022/10/06 06:59:09;;;;;;;7.03;3.83;;;;;;;-141.23;100.00;62281.09;5078053;28;20073;-72
2022/10/06 07:01:36;;;;;;;4.95;3.78;;;;;;;-141.23;100.00;62281.09;5093414;28;20313;-73
2022/10/06 07:04:02;;;;;;;6.75;4.28;;;;;;;-141.23;100.00;62281.09;5078271;28;20146;-71
2022/10/06 07:06:32;;;;;;;5.35;4.07;;;;;;;-141.23;100.00;62281.09;5062599;28;20105;-72
2022/10/06 07:09:00;;;;;;;6.35;3.97;;;;;;;-141.23;100.00;62281.09;5061506;28;20393;-71
2022/10/06 07:11:32;;;;;;;7.47;3.47;;;;;;;-141.23;100.00;62281.09;5062283;28;20054;-69
2022/10/06 07:14:04;;;;;;;6.15;3.58;;;;;;;-141.23;100.00;62281.09;5045121;28;20484;-71
2022/10/06 07:25:07;;;;;;;5.05;2.75;;;;;;;-141.23;100.00;62281.09;5059314;28;20069;-71
2022/10/06 07:27:45;;;;;;;4.72;3.22;;;;;;;-141.23;100.00;62281.09;5067227;28;20044;-72
2022/10/06 07:30:25;;;;;;;4.35;2.88;;;;;;;-141.23;100.00;62281.09;5065414;28;20036;-74
2022/10/06 07:32:57;;;;;;;5.18;3.58;;;;;;;-141.23;100.00;62281.09;5076492;28;20040;-70
2022/10/06 07:35:44;;;;;;;6.97;3.97;;;;;;;-141.23;100.00;62281.09;5061709;28;20046;-72
2022/10/06 07:38:11;;;;;;;5.53;3.38;;;;;;;-141.23;100.00;62281.09;5062591;28;20048;-71
2022/10/06 07:40:53;;;;;;;6.13;3.20;;;;;;;-141.23;100.00;62281.09;5050319;28;20047;-72
2022/10/06 07:43:19;;;;;;;5.57;4.38;;;;;;;-141.23;100.00;62281.09;5062405;28;20137;-72
2022/10/06 07:45:48;;;;;;;5.60;3.22;;;;;;;-141.23;100.00;62281.09;5046337;28;20043;-72
2022/10/06 07:48:23;;;;;;;5.00;3.08;;;;;;;-141.23;100.00;62281.09;5065216;28;20050;-73
2022/10/06 07:50:55;;;;;;;4.63;3.05;;;;;;;-141.23;100.00;62281.09;5062638;28;20428;-72
2022/10/06 07:53:28;;;;;;;7.60;3.30;;;;;;;-141.23;100.00;62281.09;5063528;28;20050;-71
2022/10/06 07:56:05;;;;;;;4.63;3.08;;;;;;;-141.23;100.00;62281.09;5063500;28;20497;-71
2022/10/06 07:58:36;;;;;;;4.90;3.30;;;;;;;-141.23;100.00;62281.09;5046044;28;20096;-72
2022/10/06 08:01:08;;;;;;;4.40;2.88;;;;;;;-141.23;100.00;62281.09;5078355;28;20044;-74
2022/10/06 08:03:35;;;;;;;5.40;2.90;;;;;;;-141.23;100.00;62281.09;5095151;28;20378;-74
2022/10/06 08:06:01;;;;;;;4.38;2.88;;;;;;;-141.23;100.00;62281.09;5078378;28;20059;-73
2022/10/06 08:08:35;;;;;;;4.53;3.80;;;;;;;-141.23;100.00;62281.09;5079613;28;20039;-71
2022/10/06 08:11:02;;;;;;;3.70;3.15;;;;;;;-141.23;100.00;62281.09;5062258;28;20390;-71
2022/10/06 08:13:31;;;;;;;6.18;3.38;;;;;;;-141.23;100.00;62281.09;5061054;28;20052;-72
2022/10/06 08:16:06;;;;;;;4.55;3.22;;;;;;;-141.23;100.00;62281.09;5071362;28;20035;-69
2022/10/06 08:18:33;;;;;;;5.30;3.65;;;;;;;-141.23;100.00;62281.09;5075040;28;20040;-71
2022/10/06 08:20:59;;;;;;;3.22;2.78;;;;;;;-141.23;100.00;62281.09;5073980;28;20048;-71
2022/10/06 08:23:25;;;;;;;5.88;2.97;;;;;;;-141.23;100.00;62281.09;5024426;28;20395;-70
2022/10/06 08:25:53;;;;;;;5.93;3.03;;;;;;;-141.23;100.00;62281.09;5024513;28;20651;-71
2022/10/06 08:28:21;;;;;;;5.88;3.33;;;;;;;-141.23;100.00;62281.09;5053699;28;20126;-72
2022/10/06 08:30:50;;;;;;;5.30;3.70;;;;;;;-141.23;100.00;62281.09;5059696;28;20039;-72
2022/10/06 08:33:16;;;;;;;4.75;3.30;;;;;;;-141.23;100.00;62281.09;5058189;28;20036;-73
2022/10/06 08:35:42;;;;;;;5.05;2.78;;;;;;;-141.23;100.00;62281.09;5043019;28;20047;-74
2022/10/06 08:38:07;;;;;;;4.00;2.78;;;;;;;-141.23;100.00;62281.09;5060167;28;20096;-72
2022/10/06 08:40:33;;;;;;;3.38;2.83;;;;;;;-141.23;100.00;62281.09;5093155;28;20039;-69
2022/10/06 08:43:01;;;;;;;5.25;3.38;;;;;;;-141.23;100.00;62281.09;5073960;28;20051;-73
2022/10/06 08:45:38;;;;;;;4.88;2.80;;;;;;;-141.23;100.00;62281.09;5077038;28;20039;-70
2022/10/06 08:48:13;;;;;;;6.90;3.55;;;;;;;-141.23;100.00;62281.09;5060947;28;20081;-72
2022/10/06 08:51:07;;;;;;;3.38;2.65;;;;;;;-141.23;100.00;62281.09;5060199;28;20477;-71
2022/10/06 08:53:45;;;;;;;4.13;2.88;;;;;;;-141.23;100.00;62281.09;5060365;28;20095;-72
2022/10/06 08:56:25;;;;;;;5.43;2.90;;;;;;;-141.23;100.00;62281.09;5078509;28;20039;-73
2022/10/06 08:58:54;;;;;;;4.03;3.08;;;;;;;-141.23;100.00;62281.09;5096160;28;20076;-72
2022/10/06 09:01:23;;;;;;;4.25;2.78;;;;;;;-141.23;100.00;62281.09;5078758;28;20039;-72
2022/10/06 09:03:51;;;;;;;3.10;2.63;;;;;;;-141.23;100.00;62281.09;5062251;28;20146;-73
2022/10/06 09:06:23;;;;;;;5.07;2.70;;;;;;;-141.23;100.00;62281.09;5063011;28;20484;-72
2022/10/06 09:08:53;;;;;;;2.80;2.40;;;;;;;-141.23;100.00;62281.09;5060285;28;20035;-70
2022/10/06 09:11:43;;;;;;;4.93;2.60;;;;;;;-141.23;100.00;62281.09;5060576;28;20039;-73
2022/10/06 09:14:16;;;;;;;4.35;3.33;;;;;;;-141.23;100.00;62281.09;5060273;28;20051;-73
2022/10/06 09:16:48;;;;;;;5.45;3.30;;;;;;;-141.23;100.00;62281.09;5034324;28;20078;-73
2022/10/06 09:19:51;;;;;;;4.68;3.67;;;;;;;-141.23;100.00;62281.09;5092712;28;20089;-71
2022/10/06 09:22:20;;;;;;;11.63;5.32;;;;;;;-141.23;100.00;62281.09;4991505;28;20047;-73
2022/10/06 09:24:50;;;;;;;5.97;4.38;;;;;;;-141.23;100.00;62281.09;5073015;28;20054;-73
2022/10/06 09:27:20;;;;;;;5.13;3.70;;;;;;;-141.23;100.00;62281.09;5091827;28;20122;-76
2022/10/06 09:29:49;;;;;;;8.60;3.72;;;;;;;-141.23;100.00;62281.09;5060586;28;20084;-74
2022/10/06 09:32:17;;;;;;;5.47;3.47;;;;;;;-141.23;100.00;62281.09;5078767;28;20050;-73
2022/10/06 09:34:44;;;;;;;6.55;3.45;;;;;;;-141.23;100.00;62281.09;5062539;28;20063;-74
2022/10/06 09:37:12;;;;;;;8.38;3.70;;;;;;;-141.23;100.00;62281.09;5096831;28;20036;-74
2022/10/06 09:39:43;;;;;;;8.52;3.97;;;;;;;-141.23;100.00;62281.09;5080331;28;20058;-71
2022/10/06 09:42:28;;;;;;;4.80;3.28;;;;;;;-141.23;100.00;62281.09;5077006;28;20489;-74
2022/10/06 09:45:00;;;;;;;9.73;3.80;;;;;;;-141.23;100.00;62281.09;5077167;28;20142;-72
2022/10/06 09:47:32;;;;;;;5.40;3.90;;;;;;;-141.23;100.00;62281.09;5076959;28;20047;-71
2022/10/06 09:50:10;;;;;;;4.80;3.38;;;;;;;-141.23;100.00;62281.09;5093992;28;20095;-71
2022/10/06 09:52:35;;;;;;;5.35;3.72;;;;;;;-141.23;100.00;62281.09;5116858;28;20138;-73
2022/10/06 09:55:08;;;;;;;4.85;3.72;;;;;;;-141.23;100.00;62281.09;5064156;28;20134;-73
2022/10/06 09:57:36;;;;;;;4.93;4.00;;;;;;;-141.23;100.00;62281.09;5081172;28;20493;-72
2022/10/06 10:00:04;;;;;;;4.97;3.95;;;;;;;-141.23;100.00;62281.09;5063883;28;20052;-73
2022/10/06 10:02:38;;;;;;;5.88;4.00;;;;;;;-141.23;100.00;62281.09;5097659;28;20148;-72
2022/10/06 10:05:17;;;;;;;5.60;4.15;;;;;;;-141.23;100.00;62281.09;5098310;28;20377;-73
2022/10/06 10:07:44;;;;;;;7.65;4.00;;;;;;;-141.23;100.00;62281.09;5097644;28;20492;-71
2022/10/06 10:10:16;;;;;;;6.97;4.00;;;;;;;-141.23;100.00;62281.09;5081642;28;20135;-72
2022/10/06 10:13:12;;;;;;;4.55;3.55;;;;;;;-141.23;100.00;62281.09;5080563;28;20048;-72
2022/10/06 10:15:57;;;;;;;4.47;3.83;;;;;;;-141.23;100.00;62281.09;5084934;28;20052;-72
2022/10/06 10:18:29;;;;;;;6.30;3.60;;;;;;;-141.23;100.00;62281.09;5064388;28;20035;-72
2022/10/06 10:21:06;;;;;;;7.40;4.30;;;;;;;-141.23;100.00;62281.09;5064075;28;20043;-73
2022/10/06 10:23:37;;;;;;;5.65;3.35;;;;;;;-141.23;100.00;62281.09;5080946;28;20052;-74
2022/10/06 10:26:28;;;;;;;6.72;3.50;;;;;;;-141.23;100.00;62281.09;5115063;28;20477;-71
2022/10/06 10:29:02;;;;;;;5.05;3.70;;;;;;;-141.23;100.00;62281.09;5064856;28;20041;-71
2022/10/06 10:31:49;;;;;;;5.63;3.53;;;;;;;-141.23;100.00;62281.09;5096982;28;20051;-70
2022/10/06 10:34:41;;;;;;;9.23;4.57;;;;;;;-141.23;100.00;62281.09;5079984;28;20047;-70
2022/10/06 10:37:34;;;;;;;7.28;5.00;;;;;;;-141.23;100.00;62281.09;5063271;28;20043;-71
2022/10/06 10:40:15;;;;;;;8.82;4.65;;;;;;;-141.23;100.00;62281.09;5079714;28;20059;-70
2022/10/06 10:43:26;;;;;;;9.32;4.82;;;;;;;-141.23;100.00;62281.09;5063099;28;20085;-71
2022/10/06 10:46:03;;;;;;;11.93;4.30;;;;;;;-141.23;100.00;62281.09;5060577;28;20047;-71
2022/10/06 10:48:33;;;;;;;9.18;4.70;;;;;;;-141.23;100.00;62281.09;5080175;28;20036;-73
2022/10/06 10:51:01;;;;;;;6.63;4.23;;;;;;;-141.23;100.00;62281.09;5096214;28;20085;-72
2022/10/06 10:53:39;;;;;;;6.90;4.40;;;;;;;-141.23;100.00;62281.09;5096474;28;20050;-72
2022/10/06 10:56:10;;;;;;;7.78;4.30;;;;;;;-141.23;100.00;62281.09;5079878;28;20145;-73
2022/10/06 10:58:39;;;;;;;7.10;4.05;;;;;;;-141.23;100.00;62281.09;5063372;28;20050;-73
2022/10/06 11:01:29;;;;;;;7.85;4.00;;;;;;;-141.23;100.00;62281.09;5046647;28;20039;-72
2022/10/06 11:03:56;;;;;;;5.93;3.47;;;;;;;-141.23;100.00;62281.09;5062434;28;20139;-70
2022/10/06 11:06:28;;;;;;;5.93;3.50;;;;;;;-141.23;100.00;62281.09;5079692;28;20108;-72
2022/10/06 11:09:06;;;;;;;7.45;4.35;;;;;;;-141.23;100.00;62281.09;5062941;28;20066;-72
2022/10/06 11:11:41;;;;;;;5.97;3.90;;;;;;;-141.23;100.00;62281.09;5062178;28;20052;-72
2022/10/06 11:14:42;;;;;;;6.35;4.50;;;;;;;-141.23;100.00;62281.09;5062033;28;20473;-73
2022/10/06 11:17:43;;;;;;;8.25;4.45;;;;;;;-141.23;100.00;62281.09;5061437;28;20104;-73
2022/10/06 11:20:31;;;;;;;5.90;4.18;;;;;;;-141.23;100.00;62281.09;5079758;28;20047;-72
2022/10/06 11:23:14;;;;;;;7.82;3.78;;;;;;;-141.23;100.00;62281.09;5095965;28;20106;-71
2022/10/06 11:26:13;;;;;;;7.68;4.25;;;;;;;-141.23;100.00;62281.09;5079340;28;20040;-73
2022/10/06 11:28:48;;;;;;;6.78;4.10;;;;;;;-141.23;100.00;62281.09;5078794;28;20058;-72
2022/10/06 11:31:26;;;;;;;8.88;4.63;;;;;;;-141.23;100.00;62281.09;5078903;28;20043;-72
2022/10/06 11:33:54;;;;;;;6.88;4.35;;;;;;;-141.23;100.00;62281.09;5078957;28;20043;-72